sensor_id;sensor_type;location;lat;lon;timestamp;pressure;altitude;pressure_sealevel;temperature;humidity
27014;BME280;14556;52.222;4.510;2022-11-18T00:00:35;99211.47;;;7.56;100.00
27014;BME280;14556;52.222;4.510;2022-11-18T00:03:02;99208.66;;;7.51;100.00
27014;BME280;14556;52.222;4.510;2022-11-18T00:05:28;99215.59;;;7.52;100.00
27014;BME280;14556;52.222;4.510;2022-11-18T00:07:54;99222.00;;;7.44;100.00
27014;BME280;14556;52.222;4.510;2022-11-18T00:10:21;99222.00;;;7.44;100.00
27014;BME280;14556;52.222;4.510;2022-11-18T00:12:47;99225.09;;;7.41;100.00
27014;BME280;14556;52.222;4.510;2022-11-18T00:15:32;99232.06;;;7.42;100.00
27014;BME280;14556;52.222;4.510;2022-11-18T00:17:59;99238.84;;;7.38;100.00
27014;BME280;14556;52.222;4.510;2022-11-18T00:20:26;99240.09;;;7.35;100.00
27014;BME280;14556;52.222;4.510;2022-11-18T00:22:52;99234.63;;;7.30;100.00
27014;BME280;14556;52.222;4.510;2022-11-18T00:25:19;99249.53;;;7.31;100.00
27014;BME280;14556;52.222;4.510;2022-11-18T00:27:45;99241.19;;;7.28;100.00
27014;BME280;14556;52.222;4.510;2022-11-18T00:30:11;99253.25;;;7.23;100.00
27014;BME280;14556;52.222;4.510;2022-11-18T00:32:38;99259.47;;;7.17;100.00
27014;BME280;14556;52.222;4.510;2022-11-18T00:35:05;99266.19;;;7.20;100.00
27014;BME280;14556;52.222;4.510;2022-11-18T00:37:32;99268.09;;;7.12;100.00
27014;BME280;14556;52.222;4.510;2022-11-18T00:39:58;99259.59;;;6.97;100.00
27014;BME280;14556;52.222;4.510;2022-11-18T00:42:25;99274.69;;;7.03;100.00
27014;BME280;14556;52.222;4.510;2022-11-18T00:45:10;99266.19;;;6.87;100.00
27014;BME280;14556;52.222;4.510;2022-11-18T00:47:36;99290.50;;;6.91;100.00
27014;BME280;14556;52.222;4.510;2022-11-18T00:50:03;99292.34;;;6.91;100.00
27014;BME280;14556;52.222;4.510;2022-11-18T00:52:30;99297.69;;;6.84;100.00
27014;BME280;14556;52.222;4.510;2022-11-18T00:54:56;99305.25;;;6.80;100.00
27014;BME280;14556;52.222;4.510;2022-11-18T00:57:22;99300.59;;;6.75;100.00
27014;BME280;14556;52.222;4.510;2022-11-18T00:59:49;99303.50;;;6.67;100.00
27014;BME280;14556;52.222;4.510;2022-11-18T01:02:15;99310.66;;;6.67;100.00
27014;BME280;14556;52.222;4.510;2022-11-18T01:04:42;99310.50;;;6.55;100.00
27014;BME280;14556;52.222;4.510;2022-11-18T01:07:08;99315.38;;;6.58;100.00
27014;BME280;14556;52.222;4.510;2022-11-18T01:09:34;99313.53;;;6.51;100.00
27014;BME280;14556;52.222;4.510;2022-11-18T01:12:01;99317.03;;;6.45;100.00
27014;BME280;14556;52.222;4.510;2022-11-18T01:14:46;99323.41;;;6.44;100.00
27014;BME280;14556;52.222;4.510;2022-11-18T01:17:12;99327.91;;;6.37;100.00
27014;BME280;14556;52.222;4.510;2022-11-18T01:19:39;99337.28;;;6.39;100.00
27014;BME280;14556;52.222;4.510;2022-11-18T01:22:05;99320.75;;;6.31;100.00
27014;BME280;14556;52.222;4.510;2022-11-18T01:24:32;99325.47;;;6.28;100.00
27014;BME280;14556;52.222;4.510;2022-11-18T01:27:00;99333.63;;;6.27;100.00
27014;BME280;14556;52.222;4.510;2022-11-18T01:29:26;99338.56;;;6.23;100.00
27014;BME280;14556;52.222;4.510;2022-11-18T01:31:53;99339.97;;;6.26;100.00
27014;BME280;14556;52.222;4.510;2022-11-18T01:34:39;99338.38;;;6.18;100.00
27014;BME280;14556;52.222;4.510;2022-11-18T01:37:05;99341.19;;;6.16;100.00
27014;BME280;14556;52.222;4.510;2022-11-18T01:39:32;99352.66;;;6.17;100.00
27014;BME280;14556;52.222;4.510;2022-11-18T01:41:59;99350.19;;;6.15;100.00
27014;BME280;14556;52.222;4.510;2022-11-18T01:47:25;99353.47;;;6.11;100.00
27014;BME280;14556;52.222;4.510;2022-11-18T01:49:53;99357.97;;;6.10;100.00
27014;BME280;14556;52.222;4.510;2022-11-18T01:52:20;99362.44;;;6.10;100.00
27014;BME280;14556;52.222;4.510;2022-11-18T01:54:50;99360.44;;;6.05;100.00
27014;BME280;14556;52.222;4.510;2022-11-18T01:57:21;99358.59;;;6.12;100.00
27014;BME280;14556;52.222;4.510;2022-11-18T01:59:50;99361.22;;;6.19;100.00
27014;BME280;14556;52.222;4.510;2022-11-18T02:02:21;99365.09;;;6.16;100.00
27014;BME280;14556;52.222;4.510;2022-11-18T02:04:49;99370.41;;;6.10;100.00
27014;BME280;14556;52.222;4.510;2022-11-18T02:07:20;99377.78;;;6.08;100.00
27014;BME280;14556;52.222;4.510;2022-11-18T02:09:47;99368.19;;;6.07;100.00
27014;BME280;14556;52.222;4.510;2022-11-18T02:12:15;99383.66;;;6.03;100.00
27014;BME280;14556;52.222;4.510;2022-11-18T02:14:44;99381.84;;;5.97;100.00
27014;BME280;14556;52.222;4.510;2022-11-18T02:20:16;99391.84;;;6.01;100.00
27014;BME280;14556;52.222;4.510;2022-11-18T02:22:53;99393.47;;;6.02;100.00
27014;BME280;14556;52.222;4.510;2022-11-18T02:31:19;99404.50;;;5.92;100.00
27014;BME280;14556;52.222;4.510;2022-11-18T02:33:53;99401.22;;;5.90;100.00
27014;BME280;14556;52.222;4.510;2022-11-18T02:36:27;99404.91;;;5.89;100.00
27014;BME280;14556;52.222;4.510;2022-11-18T02:39:04;99403.66;;;5.85;100.00
27014;BME280;14556;52.222;4.510;2022-11-18T02:41:34;99414.69;;;5.89;100.00
27014;BME280;14556;52.222;4.510;2022-11-18T02:44:10;99418.19;;;5.89;100.00
27014;BME280;14556;52.222;4.510;2022-11-18T02:46:39;99418.59;;;5.93;100.00
27014;BME280;14556;52.222;4.510;2022-11-18T02:49:16;99411.03;;;5.97;100.00
27014;BME280;14556;52.222;4.510;2022-11-18T02:51:47;99422.06;;;5.93;100.00
27014;BME280;14556;52.222;4.510;2022-11-18T02:54:17;99416.34;;;5.90;100.00
27014;BME280;14556;52.222;4.510;2022-11-18T02:56:46;99417.16;;;5.90;100.00
27014;BME280;14556;52.222;4.510;2022-11-18T02:59:18;99413.06;;;5.88;100.00
27014;BME280;14556;52.222;4.510;2022-11-18T03:01:46;99418.19;;;5.89;100.00
27014;BME280;14556;52.222;4.510;2022-11-18T03:04:14;99405.31;;;5.93;100.00
27014;BME280;14556;52.222;4.510;2022-11-18T03:06:48;99417.75;;;5.92;100.00
27014;BME280;14556;52.222;4.510;2022-11-18T03:09:27;99427.75;;;5.97;100.00
27014;BME280;14556;52.222;4.510;2022-11-18T03:12:25;99431.03;;;5.99;100.00
27014;BME280;14556;52.222;4.510;2022-11-18T03:18:05;99435.50;;;5.85;100.00
27014;BME280;14556;52.222;4.510;2022-11-18T03:20:47;99435.50;;;5.85;100.00
27014;BME280;14556;52.222;4.510;2022-11-18T03:23:31;99446.97;;;5.92;100.00
27014;BME280;14556;52.222;4.510;2022-11-18T03:26:11;99444.09;;;5.87;100.00
27014;BME280;14556;52.222;4.510;2022-11-18T03:28:55;99452.88;;;5.88;100.00
27014;BME280;14556;52.222;4.510;2022-11-18T03:33:59;99457.00;;;6.04;100.00
27014;BME280;14556;52.222;4.510;2022-11-18T03:36:30;99436.13;;;5.94;100.00
27014;BME280;14556;52.222;4.510;2022-11-18T03:39:00;99457.59;;;5.99;100.00
27014;BME280;14556;52.222;4.510;2022-11-18T03:41:30;99455.53;;;5.95;100.00
27014;BME280;14556;52.222;4.510;2022-11-18T03:44:04;99458.41;;;5.86;100.00
27014;BME280;14556;52.222;4.510;2022-11-18T03:46:43;99466.53;;;5.78;100.00
27014;BME280;14556;52.222;4.510;2022-11-18T03:49:33;99465.28;;;5.60;100.00
27014;BME280;14556;52.222;4.510;2022-11-18T03:52:06;99468.09;;;5.52;100.00
27014;BME280;14556;52.222;4.510;2022-11-18T03:54:37;99474.44;;;5.51;100.00
27014;BME280;14556;52.222;4.510;2022-11-18T03:57:14;99475.69;;;5.55;100.00
27014;BME280;14556;52.222;4.510;2022-11-18T03:59:52;99481.19;;;5.60;100.00
27014;BME280;14556;52.222;4.510;2022-11-18T04:02:24;99480.16;;;5.61;100.00
27014;BME280;14556;52.222;4.510;2022-11-18T04:04:53;99487.94;;;5.69;100.00
27014;BME280;14556;52.222;4.510;2022-11-18T04:10:02;99487.38;;;5.74;100.00
27014;BME280;14556;52.222;4.510;2022-11-18T04:12:32;99490.63;;;5.76;100.00
27014;BME280;14556;52.222;4.510;2022-11-18T04:15:01;99488.38;;;5.80;100.00
27014;BME280;14556;52.222;4.510;2022-11-18T04:17:28;99495.13;;;5.83;100.00
27014;BME280;14556;52.222;4.510;2022-11-18T04:19:54;99503.94;;;5.83;100.00
27014;BME280;14556;52.222;4.510;2022-11-18T04:22:21;99506.16;;;5.79;100.00
27014;BME280;14556;52.222;4.510;2022-11-18T04:24:48;99503.69;;;5.78;100.00
27014;BME280;14556;52.222;4.510;2022-11-18T04:27:14;99507.78;;;5.80;100.00
27014;BME280;14556;52.222;4.510;2022-11-18T04:29:41;99515.13;;;5.85;100.00
27014;BME280;14556;52.222;4.510;2022-11-18T04:32:07;99515.53;;;5.82;100.00
27014;BME280;14556;52.222;4.510;2022-11-18T04:34:33;99510.84;;;5.77;100.00
27014;BME280;14556;52.222;4.510;2022-11-18T04:37:00;99534.34;;;5.87;100.00
27014;BME280;14556;52.222;4.510;2022-11-18T04:39:27;99530.06;;;5.86;100.00
27014;BME280;14556;52.222;4.510;2022-11-18T04:41:53;99532.72;;;5.86;100.00
27014;BME280;14556;52.222;4.510;2022-11-18T04:44:24;99539.44;;;5.89;100.00
27014;BME280;14556;52.222;4.510;2022-11-18T04:46:52;99534.34;;;5.87;100.00
27014;BME280;14556;52.222;4.510;2022-11-18T04:49:18;99549.84;;;5.90;100.00
27014;BME280;14556;52.222;4.510;2022-11-18T04:51:46;99542.50;;;5.92;100.00
27014;BME280;14556;52.222;4.510;2022-11-18T04:54:14;99558.44;;;5.92;100.00
27014;BME280;14556;52.222;4.510;2022-11-18T04:56:41;99551.72;;;5.90;100.00
27014;BME280;14556;52.222;4.510;2022-11-18T04:59:16;99553.13;;;5.92;100.00
27014;BME280;14556;52.222;4.510;2022-11-18T05:01:43;99561.09;;;5.92;100.00
27014;BME280;14556;52.222;4.510;2022-11-18T05:04:15;99554.97;;;5.92;100.00
27014;BME280;14556;52.222;4.510;2022-11-18T05:06:42;99566.59;;;5.91;100.00
27014;BME280;14556;52.222;4.510;2022-11-18T05:09:09;99571.50;;;5.94;100.00
27014;BME280;14556;52.222;4.510;2022-11-18T05:11:36;99572.34;;;5.95;100.00
27014;BME280;14556;52.222;4.510;2022-11-18T05:14:21;99582.31;;;5.92;100.00
27014;BME280;14556;52.222;4.510;2022-11-18T05:16:49;99569.88;;;5.93;100.00
27014;BME280;14556;52.222;4.510;2022-11-18T05:19:16;99576.03;;;5.93;100.00
27014;BME280;14556;52.222;4.510;2022-11-18T05:21:43;99582.53;;;5.91;100.00
27014;BME280;14556;52.222;4.510;2022-11-18T05:24:10;99587.00;;;5.90;100.00
27014;BME280;14556;52.222;4.510;2022-11-18T05:26:36;99581.09;;;5.88;100.00
27014;BME280;14556;52.222;4.510;2022-11-18T05:29:03;99575.78;;;5.88;100.00
27014;BME280;14556;52.222;4.510;2022-11-18T05:31:30;99579.25;;;5.89;100.00
27014;BME280;14556;52.222;4.510;2022-11-18T05:33:57;99585.59;;;5.88;100.00
27014;BME280;14556;52.222;4.510;2022-11-18T05:36:23;99591.53;;;5.90;100.00
27014;BME280;14556;52.222;4.510;2022-11-18T05:38:50;99593.34;;;5.89;100.00
27014;BME280;14556;52.222;4.510;2022-11-18T05:41:17;99601.31;;;5.89;100.00
27014;BME280;14556;52.222;4.510;2022-11-18T05:44:03;99592.50;;;5.82;100.00
27014;BME280;14556;52.222;4.510;2022-11-18T05:46:30;99595.38;;;5.87;100.00
27014;BME280;14556;52.222;4.510;2022-11-18T05:48:56;99605.38;;;5.92;100.00
27014;BME280;14556;52.222;4.510;2022-11-18T05:51:24;99605.59;;;5.90;100.00
27014;BME280;14556;52.222;4.510;2022-11-18T05:53:51;99609.28;;;5.89;100.00
27014;BME280;14556;52.222;4.510;2022-11-18T05:56:24;99606.41;;;5.84;100.00
27014;BME280;14556;52.222;4.510;2022-11-18T05:58:53;99604.16;;;5.81;100.00
27014;BME280;14556;52.222;4.510;2022-11-18T06:01:22;99611.91;;;5.83;100.00
27014;BME280;14556;52.222;4.510;2022-11-18T06:03:51;99611.47;;;5.79;100.00
27014;BME280;14556;52.222;4.510;2022-11-18T06:06:19;99605.31;;;5.72;100.00
27014;BME280;14556;52.222;4.510;2022-11-18T06:08:55;99612.25;;;5.73;100.00
27014;BME280;14556;52.222;4.510;2022-11-18T06:11:25;99610.81;;;5.70;100.00
27014;BME280;14556;52.222;4.510;2022-11-18T06:14:01;99627.78;;;5.69;100.00
27014;BME280;14556;52.222;4.510;2022-11-18T06:16:30;99637.75;;;5.67;100.00
27014;BME280;14556;52.222;4.510;2022-11-18T06:19:04;99639.34;;;5.61;100.00
27014;BME280;14556;52.222;4.510;2022-11-18T06:21:32;99639.75;;;5.58;100.00
27014;BME280;14556;52.222;4.510;2022-11-18T06:23:59;99639.50;;;5.53;100.00
27014;BME280;14556;52.222;4.510;2022-11-18T06:26:25;99650.91;;;5.53;100.00
27014;BME280;14556;52.222;4.510;2022-11-18T06:28:54;99658.50;;;5.56;100.00
27014;BME280;14556;52.222;4.510;2022-11-18T06:31:21;99655.19;;;5.48;100.00
27014;BME280;14556;52.222;4.510;2022-11-18T06:33:48;99653.69;;;5.38;100.00
27014;BME280;14556;52.222;4.510;2022-11-18T06:36:15;99672.50;;;5.43;100.00
27014;BME280;14556;52.222;4.510;2022-11-18T06:38:41;99669.41;;;5.40;100.00
27014;BME280;14556;52.222;4.510;2022-11-18T06:41:07;99679.56;;;5.36;100.00
27014;BME280;14556;52.222;4.510;2022-11-18T06:43:34;99685.31;;;5.40;100.00
27014;BME280;14556;52.222;4.510;2022-11-18T06:46:12;99682.44;;;5.35;100.00
27014;BME280;14556;52.222;4.510;2022-11-18T06:48:59;99692.03;;;5.36;100.00
27014;BME280;14556;52.222;4.510;2022-11-18T06:51:26;99693.03;;;5.35;100.00
27014;BME280;14556;52.222;4.510;2022-11-18T06:53:53;99696.50;;;5.35;100.00
27014;BME280;14556;52.222;4.510;2022-11-18T06:56:21;99706.50;;;5.33;100.00
27014;BME280;14556;52.222;4.510;2022-11-18T06:58:55;99696.28;;;5.30;100.00
27014;BME280;14556;52.222;4.510;2022-11-18T07:01:24;99710.41;;;5.37;100.00
27014;BME280;14556;52.222;4.510;2022-11-18T07:03:51;99710.81;;;5.34;100.00
27014;BME280;14556;52.222;4.510;2022-11-18T07:06:20;99717.50;;;5.30;100.00
27014;BME280;14556;52.222;4.510;2022-11-18T07:08:47;99707.06;;;5.28;100.00
27014;BME280;14556;52.222;4.510;2022-11-18T07:11:17;99721.13;;;5.29;100.00
27014;BME280;14556;52.222;4.510;2022-11-18T07:13:44;99719.31;;;5.29;100.00
27014;BME280;14556;52.222;4.510;2022-11-18T07:16:13;99726.28;;;5.30;100.00
27014;BME280;14556;52.222;4.510;2022-11-18T07:18:40;99723.78;;;5.29;100.00
27014;BME280;14556;52.222;4.510;2022-11-18T07:21:10;99734.22;;;5.30;100.00
27014;BME280;14556;52.222;4.510;2022-11-18T07:23:38;99732.97;;;5.26;100.00
27014;BME280;14556;52.222;4.510;2022-11-18T07:26:05;99738.66;;;5.23;100.00
27014;BME280;14556;52.222;4.510;2022-11-18T07:28:32;99746.66;;;5.30;100.00
27014;BME280;14556;52.222;4.510;2022-11-18T07:31:03;99747.28;;;5.32;100.00
27014;BME280;14556;52.222;4.510;2022-11-18T07:33:31;99752.66;;;5.39;100.00
27014;BME280;14556;52.222;4.510;2022-11-18T07:36:06;99758.59;;;5.41;100.00
27014;BME280;14556;52.222;4.510;2022-11-18T07:38:33;99763.88;;;5.41;100.00
27014;BME280;14556;52.222;4.510;2022-11-18T07:41:20;99768.75;;;5.37;100.00
27014;BME280;14556;52.222;4.510;2022-11-18T07:43:47;99770.38;;;5.38;100.00
27014;BME280;14556;52.222;4.510;2022-11-18T07:46:21;99766.66;;;5.32;100.00
27014;BME280;14556;52.222;4.510;2022-11-18T07:48:49;99784.53;;;5.46;100.00
27014;BME280;14556;52.222;4.510;2022-11-18T07:51:17;99783.94;;;5.50;100.00
27014;BME280;14556;52.222;4.510;2022-11-18T07:53:44;99788.88;;;5.53;100.00
27014;BME280;14556;52.222;4.510;2022-11-18T07:56:12;99791.97;;;5.57;100.00
27014;BME280;14556;52.222;4.510;2022-11-18T07:58:39;99794.25;;;5.60;100.00
27014;BME280;14556;52.222;4.510;2022-11-18T08:01:15;99796.50;;;5.63;100.00
27014;BME280;14556;52.222;4.510;2022-11-18T08:03:43;99793.88;;;5.63;100.00
27014;BME280;14556;52.222;4.510;2022-11-18T08:06:11;99804.91;;;5.67;100.00
27014;BME280;14556;52.222;4.510;2022-11-18T08:08:38;99809.19;;;5.68;100.00
27014;BME280;14556;52.222;4.510;2022-11-18T08:11:07;99824.13;;;5.69;100.00
27014;BME280;14556;52.222;4.510;2022-11-18T08:13:34;99820.00;;;5.66;100.00
27014;BME280;14556;52.222;4.510;2022-11-18T08:16:02;99812.63;;;5.62;100.00
27014;BME280;14556;52.222;4.510;2022-11-18T08:18:30;99828.22;;;5.72;100.00
27014;BME280;14556;52.222;4.510;2022-11-18T08:21:04;99828.00;;;5.73;100.00
27014;BME280;14556;52.222;4.510;2022-11-18T08:23:31;99831.88;;;5.71;100.00
27014;BME280;14556;52.222;4.510;2022-11-18T08:26:06;99823.09;;;5.70;100.00
27014;BME280;14556;52.222;4.510;2022-11-18T08:28:33;99843.09;;;5.73;100.00
27014;BME280;14556;52.222;4.510;2022-11-18T08:31:08;99833.97;;;5.75;100.00
27014;BME280;14556;52.222;4.510;2022-11-18T08:33:34;99836.03;;;5.80;100.00
27014;BME280;14556;52.222;4.510;2022-11-18T08:36:09;99843.88;;;5.88;100.00
27014;BME280;14556;52.222;4.510;2022-11-18T08:38:35;99850.66;;;5.98;100.00
27014;BME280;14556;52.222;4.510;2022-11-18T08:41:02;99845.41;;;6.04;100.00
27014;BME280;14556;52.222;4.510;2022-11-18T08:43:30;99843.06;;;6.16;100.00
27014;BME280;14556;52.222;4.510;2022-11-18T08:45:56;99848.84;;;6.27;100.00
27014;BME280;14556;52.222;4.510;2022-11-18T08:48:23;99846.69;;;6.37;100.00
27014;BME280;14556;52.222;4.510;2022-11-18T08:50:50;99844.66;;;6.46;100.00
27014;BME280;14556;52.222;4.510;2022-11-18T08:53:16;99853.69;;;6.52;100.00
27014;BME280;14556;52.222;4.510;2022-11-18T08:55:43;99848.03;;;6.62;100.00
27014;BME280;14556;52.222;4.510;2022-11-18T08:58:09;99851.34;;;6.71;100.00
27014;BME280;14556;52.222;4.510;2022-11-18T09:00:36;99857.50;;;6.78;100.00
27014;BME280;14556;52.222;4.510;2022-11-18T09:03:04;99853.84;;;6.79;100.00
27014;BME280;14556;52.222;4.510;2022-11-18T09:05:30;99855.06;;;6.83;100.00
27014;BME280;14556;52.222;4.510;2022-11-18T09:07:56;99856.34;;;6.94;100.00
27014;BME280;14556;52.222;4.510;2022-11-18T09:10:23;99864.34;;;7.01;100.00
27014;BME280;14556;52.222;4.510;2022-11-18T09:12:49;99867.84;;;7.08;100.00
27014;BME280;14556;52.222;4.510;2022-11-18T09:15:16;99861.91;;;7.06;100.00
27014;BME280;14556;52.222;4.510;2022-11-18T09:17:43;99871.56;;;7.21;100.00
27014;BME280;14556;52.222;4.510;2022-11-18T09:20:09;99873.44;;;7.27;100.00
27014;BME280;14556;52.222;4.510;2022-11-18T09:22:36;99873.84;;;7.24;100.00
27014;BME280;14556;52.222;4.510;2022-11-18T09:25:03;99881.19;;;7.29;100.00
27014;BME280;14556;52.222;4.510;2022-11-18T09:27:29;99889.34;;;7.13;100.00
27014;BME280;14556;52.222;4.510;2022-11-18T09:29:56;99894.06;;;7.25;100.00
27014;BME280;14556;52.222;4.510;2022-11-18T09:32:22;99890.59;;;7.18;100.00
27014;BME280;14556;52.222;4.510;2022-11-18T09:34:49;99887.56;;;7.28;100.00
27014;BME280;14556;52.222;4.510;2022-11-18T09:37:15;99901.28;;;7.38;100.00
27014;BME280;14556;52.222;4.510;2022-11-18T09:39:42;99901.72;;;7.48;100.00
27014;BME280;14556;52.222;4.510;2022-11-18T09:45:18;99916.00;;;7.34;100.00
27014;BME280;14556;52.222;4.510;2022-11-18T09:47:55;99901.25;;;7.18;100.00
27014;BME280;14556;52.222;4.510;2022-11-18T09:50:22;99919.09;;;7.37;100.00
27014;BME280;14556;52.222;4.510;2022-11-18T09:53:22;99919.53;;;7.48;100.00
27014;BME280;14556;52.222;4.510;2022-11-18T09:55:50;99923.22;;;7.47;100.00
27014;BME280;14556;52.222;4.510;2022-11-18T09:58:24;99926.72;;;7.47;100.00
27014;BME280;14556;52.222;4.510;2022-11-18T10:00:54;99921.38;;;7.47;100.00
27014;BME280;14556;52.222;4.510;2022-11-18T10:03:31;99907.47;;;7.45;100.00
27014;BME280;14556;52.222;4.510;2022-11-18T10:11:23;99929.41;;;7.68;100.00
27014;BME280;14556;52.222;4.510;2022-11-18T10:22:20;99948.47;;;7.71;100.00
27014;BME280;14556;52.222;4.510;2022-11-18T10:24:53;99952.75;;;7.72;100.00
27014;BME280;14556;52.222;4.510;2022-11-18T10:27:22;99958.06;;;7.72;100.00
27014;BME280;14556;52.222;4.510;2022-11-18T10:29:56;99960.53;;;7.74;100.00
27014;BME280;14556;52.222;4.510;2022-11-18T10:32:24;99959.28;;;7.63;100.00
27014;BME280;14556;52.222;4.510;2022-11-18T10:34:53;99962.75;;;7.64;100.00
27014;BME280;14556;52.222;4.510;2022-11-18T10:37:33;99972.41;;;7.71;100.00
27014;BME280;14556;52.222;4.510;2022-11-18T10:40:27;99977.53;;;7.66;100.00
27014;BME280;14556;52.222;4.510;2022-11-18T10:42:54;99977.53;;;7.73;100.00
27014;BME280;14556;52.222;4.510;2022-11-18T10:50:37;99984.31;;;7.82;100.00
27014;BME280;14556;52.222;4.510;2022-11-18T10:53:05;99983.91;;;7.79;100.00
27014;BME280;14556;52.222;4.510;2022-11-18T10:55:59;99980.22;;;7.86;100.00
27014;BME280;14556;52.222;4.510;2022-11-18T10:58:29;99990.28;;;7.84;100.00
27014;BME280;14556;52.222;4.510;2022-11-18T11:03:42;99989.03;;;7.87;100.00
27014;BME280;14556;52.222;4.510;2022-11-18T11:06:22;99995.00;;;7.89;100.00
27014;BME280;14556;52.222;4.510;2022-11-18T11:09:05;99991.69;;;7.87;100.00
27014;BME280;14556;52.222;4.510;2022-11-18T11:11:35;99987.41;;;7.93;100.00
27014;BME280;14556;52.222;4.510;2022-11-18T11:14:12;99989.25;;;7.92;100.00
27014;BME280;14556;52.222;4.510;2022-11-18T11:16:55;99986.38;;;7.94;100.00
27014;BME280;14556;52.222;4.510;2022-11-18T11:19:27;99983.13;;;8.05;100.00
27014;BME280;14556;52.222;4.510;2022-11-18T11:21:56;99990.50;;;8.10;100.00
27014;BME280;14556;52.222;4.510;2022-11-18T11:24:25;99988.06;;;8.08;100.00
27014;BME280;14556;52.222;4.510;2022-11-18T11:27:01;99994.38;;;8.07;100.00
27014;BME280;14556;52.222;4.510;2022-11-18T11:35:29;100004.03;;;8.08;100.00
27014;BME280;14556;52.222;4.510;2022-11-18T11:40:55;100014.06;;;8.13;100.00
27014;BME280;14556;52.222;4.510;2022-11-18T11:49:18;100011.63;;;8.18;100.00
27014;BME280;14556;52.222;4.510;2022-11-18T11:52:04;100013.88;;;8.21;100.00
27014;BME280;14556;52.222;4.510;2022-11-18T11:54:42;100010.19;;;8.22;100.00
27014;BME280;14556;52.222;4.510;2022-11-18T11:57:32;100010.19;;;8.16;100.00
27014;BME280;14556;52.222;4.510;2022-11-18T12:00:07;100013.47;;;8.18;100.00
27014;BME280;14556;52.222;4.510;2022-11-18T12:05:34;100019.63;;;8.18;100.00
27014;BME280;14556;52.222;4.510;2022-11-18T12:08:14;100019.41;;;8.20;100.00
27014;BME280;14556;52.222;4.510;2022-11-18T12:13:52;100018.41;;;8.14;100.00
27014;BME280;14556;52.222;4.510;2022-11-18T12:16:32;100035.22;;;8.28;100.00
27014;BME280;14556;52.222;4.510;2022-11-18T12:27:12;100035.22;;;8.28;100.00
27014;BME280;14556;52.222;4.510;2022-11-18T12:35:10;100033.78;;;8.26;100.00
27014;BME280;14556;52.222;4.510;2022-11-18T12:51:49;100043.63;;;8.45;100.00
27014;BME280;14556;52.222;4.510;2022-11-18T12:54:24;100048.97;;;8.52;100.00
27014;BME280;14556;52.222;4.510;2022-11-18T12:56:52;100044.44;;;8.46;100.00
27014;BME280;14556;52.222;4.510;2022-11-18T12:59:26;100034.81;;;8.45;100.00
27014;BME280;14556;52.222;4.510;2022-11-18T13:02:16;100051.44;;;8.54;100.00
27014;BME280;14556;52.222;4.510;2022-11-18T13:04:43;100047.72;;;8.48;100.00
27014;BME280;14556;52.222;4.510;2022-11-18T13:07:17;100063.09;;;8.46;100.00
27014;BME280;14556;52.222;4.510;2022-11-18T13:10:20;100053.25;;;8.46;100.00
27014;BME280;14556;52.222;4.510;2022-11-18T13:12:48;100066.38;;;8.48;100.00
27014;BME280;14556;52.222;4.510;2022-11-18T13:15:14;100064.53;;;8.49;100.00
27014;BME280;14556;52.222;4.510;2022-11-18T13:18:18;100068.63;;;8.51;100.00
27014;BME280;14556;52.222;4.510;2022-11-18T13:20:58;100069.25;;;8.53;100.00
27014;BME280;14556;52.222;4.510;2022-11-18T13:23:45;100063.13;;;8.53;100.00
27014;BME280;14556;52.222;4.510;2022-11-18T13:26:28;100073.56;;;8.54;100.00
27014;BME280;14556;52.222;4.510;2022-11-18T13:34:21;100086.69;;;8.49;100.00
27014;BME280;14556;52.222;4.510;2022-11-18T13:36:50;100081.38;;;8.49;100.00
27014;BME280;14556;52.222;4.510;2022-11-18T13:39:23;100091.19;;;8.49;100.00
27014;BME280;14556;52.222;4.510;2022-11-18T13:44:31;100094.88;;;8.47;100.00
27014;BME280;14556;52.222;4.510;2022-11-18T13:52:51;100104.09;;;8.45;100.00
27014;BME280;14556;52.222;4.510;2022-11-18T13:55:24;100113.94;;;8.44;100.00
27014;BME280;14556;52.222;4.510;2022-11-18T13:58:01;100102.28;;;8.45;100.00
27014;BME280;14556;52.222;4.510;2022-11-18T14:00:31;100100.63;;;8.44;100.00
27014;BME280;14556;52.222;4.510;2022-11-18T14:03:05;100093.66;;;8.37;100.00
27014;BME280;14556;52.222;4.510;2022-11-18T14:05:40;100100.59;;;8.38;100.00
27014;BME280;14556;52.222;4.510;2022-11-18T14:08:22;100101.84;;;8.42;100.00
27014;BME280;14556;52.222;4.510;2022-11-18T14:10:50;100109.66;;;8.43;100.00
27014;BME280;14556;52.222;4.510;2022-11-18T14:13:29;100115.41;;;8.47;100.00
27014;BME280;14556;52.222;4.510;2022-11-18T14:15:59;100111.88;;;8.40;100.00
27014;BME280;14556;52.222;4.510;2022-11-18T14:18:35;100117.63;;;8.43;100.00
27014;BME280;14556;52.222;4.510;2022-11-18T14:21:03;100114.34;;;8.41;100.00
27014;BME280;14556;52.222;4.510;2022-11-18T14:23:33;100121.94;;;8.44;100.00
27014;BME280;14556;52.222;4.510;2022-11-18T14:26:02;100122.97;;;8.43;100.00
27014;BME280;14556;52.222;4.510;2022-11-18T14:28:32;100127.88;;;8.40;100.00
27014;BME280;14556;52.222;4.510;2022-11-18T14:33:38;100134.25;;;8.39;100.00
27014;BME280;14556;52.222;4.510;2022-11-18T14:36:14;100140.38;;;8.39;100.00
27014;BME280;14556;52.222;4.510;2022-11-18T14:38:46;100131.97;;;8.35;100.00
27014;BME280;14556;52.222;4.510;2022-11-18T14:41:33;100152.50;;;8.42;100.00
27014;BME280;14556;52.222;4.510;2022-11-18T14:44:16;100145.50;;;8.41;100.00
27014;BME280;14556;52.222;4.510;2022-11-18T14:46:46;100148.16;;;8.34;100.00
27014;BME280;14556;52.222;4.510;2022-11-18T14:49:19;100153.69;;;8.39;100.00
27014;BME280;14556;52.222;4.510;2022-11-18T14:51:50;100156.16;;;8.41;100.00
27014;BME280;14556;52.222;4.510;2022-11-18T14:54:20;100149.81;;;8.35;100.00
27014;BME280;14556;52.222;4.510;2022-11-18T14:56:54;100157.81;;;8.35;100.00
27014;BME280;14556;52.222;4.510;2022-11-18T14:59:21;100144.28;;;8.30;100.00
27014;BME280;14556;52.222;4.510;2022-11-18T15:01:48;100158.81;;;8.34;100.00
27014;BME280;14556;52.222;4.510;2022-11-18T15:04:14;100152.63;;;8.27;100.00
27014;BME280;14556;52.222;4.510;2022-11-18T15:06:43;100165.16;;;8.26;100.00